Time;durP1;ratioP1;P1;durP2;ratioP2;P2;SDS_P1;SDS_P2;PMS_P1;PMS_P2;Temp;Humidity;BMP_temperature;BMP_pressure;BME280_temperature;BME280_humidity;BME280_pressure;Samples;Min_cycle;Max_cycle;Signal;HPM_P1;HPM_P2
2023/06/02 00:00:12;;;;;;;3.97;2.53;;;;;;;;;;12987361;19;20022;-60
2023/06/02 00:04:50;;;;;;;6.25;2.72;;;;;;;;;;12986822;19;20018;-61
2023/06/02 00:09:08;;;;;;;6.03;2.58;;;;;;;;;;12987045;19;20017;-60
2023/06/02 00:13:27;;;;;;;5.32;3.00;;;;;;;;;;12987341;19;20021;-60
2023/06/02 00:17:45;;;;;;;;;;;;;;;;;;12987388;19;20366;-60
2023/06/02 00:22:05;;;;;;;;;;;;;;;;;;12986812;19;20265;-60
2023/06/02 00:26:23;;;;;;;4.47;2.78;;;;;;;;;;12985888;19;20366;-59
2023/06/02 00:30:41;;;;;;;5.20;3.03;;;;;;;;;;12986141;19;20359;-60
2023/06/02 00:34:59;;;;;;;;;;;;;;;;;;12986759;19;20454;-60
2023/06/02 00:39:18;;;;;;;4.28;2.67;;;;;;;;;;12987059;19;19914;-60
2023/06/02 00:43:36;;;;;;;5.97;3.20;;;;;;;;;;12986314;19;20007;-60
2023/06/02 00:47:55;;;;;;;6.13;2.85;;;;;;;;;;12986002;19;20019;-61
2023/06/02 00:52:15;;;;;;;5.75;3.10;;;;;;;;;;12984858;19;20014;-60
2023/06/02 00:56:34;;;;;;;4.40;2.85;;;;;;;;;;12982238;19;20503;-61
2023/06/02 01:00:52;;;;;;;7.45;2.63;;;;;;;;;;12983949;19;20055;-60
2023/06/02 01:05:14;;;;;;;6.30;2.92;;;;;;;;;;12985554;19;20349;-60
2023/06/02 01:09:35;;;;;;;4.63;2.72;;;;;;;;;;12982307;19;20459;-60
2023/06/02 01:13:54;;;;;;;7.07;2.55;;;;;;;;;;12983981;19;20010;-60
2023/06/02 01:18:16;;;;;;;4.22;2.45;;;;;;;;;;12983097;19;20271;-60
2023/06/02 01:22:45;;;;;;;10.20;2.80;;;;;;;;;;12981967;19;20010;-60
2023/06/02 01:27:09;;;;;;;5.22;2.60;;;;;;;;;;12981081;19;20018;-61
2023/06/02 01:31:33;;;;;;;4.35;2.80;;;;;;;;;;12983153;19;20014;-61
2023/06/02 01:35:59;;;;;;;4.90;2.85;;;;;;;;;;12982093;19;20025;-61
2023/06/02 01:40:18;;;;;;;6.40;2.75;;;;;;;;;;12980450;19;20019;-61
2023/06/02 01:44:38;;;;;;;6.13;3.38;;;;;;;;;;12981840;19;20268;-61
2023/06/02 01:48:56;;;;;;;4.13;2.90;;;;;;;;;;12980412;19;20006;-61
2023/06/02 01:53:14;;;;;;;4.13;3.13;;;;;;;;;;12981056;19;20588;-61
2023/06/02 01:57:32;;;;;;;7.77;2.87;;;;;;;;;;12978881;19;20011;-61
2023/06/02 02:01:50;;;;;;;4.53;2.60;;;;;;;;;;12980714;19;20473;-61
2023/06/02 02:06:08;;;;;;;4.80;2.65;;;;;;;;;;12980303;19;20029;-62
2023/06/02 02:10:26;;;;;;;4.90;2.80;;;;;;;;;;12980903;19;20017;-62
2023/06/02 02:14:43;;;;;;;5.95;2.85;;;;;;;;;;12981158;19;20010;-61
2023/06/02 02:19:02;;;;;;;5.18;2.97;;;;;;;;;;12988227;19;20024;-62
2023/06/02 02:23:19;;;;;;;6.53;3.13;;;;;;;;;;12993243;19;20041;-61
2023/06/02 02:27:39;;;;;;;4.13;2.58;;;;;;;;;;12993386;19;20014;-61
2023/06/02 02:31:58;;;;;;;3.50;2.95;;;;;;;;;;12993214;19;20047;-61
2023/06/02 02:36:17;;;;;;;4.05;3.00;;;;;;;;;;12992750;19;20022;-61
2023/06/02 02:40:35;;;;;;;4.75;2.88;;;;;;;;;;12992203;19;20490;-61
2023/06/02 02:44:54;;;;;;;6.20;3.10;;;;;;;;;;12990588;19;20382;-60
2023/06/02 02:49:11;;;;;;;5.35;3.00;;;;;;;;;;12991074;19;20044;-61
2023/06/02 02:53:31;;;;;;;4.97;2.95;;;;;;;;;;12991619;19;20010;-61
2023/06/02 02:57:50;;;;;;;6.57;2.97;;;;;;;;;;12991590;19;20403;-60
2023/06/02 03:02:08;;;;;;;5.88;3.03;;;;;;;;;;12990222;19;20063;-61
2023/06/02 03:06:31;;;;;;;5.55;3.20;;;;;;;;;;12990422;19;20368;-60
2023/06/02 03:10:52;;;;;;;4.95;2.70;;;;;;;;;;12991089;19;20443;-61
2023/06/02 03:15:10;;;;;;;7.43;3.53;;;;;;;;;;12990114;19;20010;-60
2023/06/02 03:19:27;;;;;;;4.47;2.63;;;;;;;;;;12991120;19;20041;-61
2023/06/02 03:23:46;;;;;;;6.93;2.95;;;;;;;;;;12990130;19;20021;-60
2023/06/02 03:28:03;;;;;;;6.43;3.00;;;;;;;;;;12989347;19;20010;-60
2023/06/02 03:32:23;;;;;;;8.23;3.10;;;;;;;;;;12986708;19;20386;-60
2023/06/02 03:36:41;;;;;;;4.10;2.95;;;;;;;;;;12989438;19;20014;-61
2023/06/02 03:41:00;;;;;;;4.85;2.47;;;;;;;;;;12989110;19;20015;-61
2023/06/02 03:45:17;;;;;;;7.88;3.03;;;;;;;;;;12987394;19;20014;-60
2023/06/02 03:49:36;;;;;;;7.65;3.47;;;;;;;;;;12988831;19;20021;-60
2023/06/02 03:53:54;;;;;;;8.48;3.42;;;;;;;;;;12988264;19;20370;-61
2023/06/02 03:58:12;;;;;;;6.35;3.35;;;;;;;;;;12987198;19;20484;-61
2023/06/02 04:02:30;;;;;;;10.65;3.40;;;;;;;;;;12988184;19;20010;-61
2023/06/02 04:06:48;;;;;;;8.10;3.40;;;;;;;;;;12987269;19;20536;-61
2023/06/02 04:11:07;;;;;;;7.53;4.63;;;;;;;;;;12986814;19;20363;-61
2023/06/02 04:15:25;;;;;;;11.65;4.32;;;;;;;;;;12988023;19;20049;-60
2023/06/02 04:19:43;;;;;;;11.85;4.70;;;;;;;;;;12988102;19;20015;-60
2023/06/02 04:24:03;;;;;;;8.75;3.95;;;;;;;;;;12986414;19;20014;-60
2023/06/02 04:28:21;;;;;;;8.93;4.47;;;;;;;;;;12986621;19;20032;-60
2023/06/02 04:32:40;;;;;;;10.35;4.57;;;;;;;;;;12986046;19;20018;-60
2023/06/02 04:36:59;;;;;;;8.27;4.05;;;;;;;;;;12985895;19;20513;-60
2023/06/02 04:41:17;;;;;;;9.85;4.20;;;;;;;;;;12985321;19;20015;-60
2023/06/02 04:45:35;;;;;;;8.18;4.22;;;;;;;;;;12985348;19;20010;-61
2023/06/02 04:49:54;;;;;;;8.48;4.13;;;;;;;;;;12985857;19;20375;-61
2023/06/02 04:54:15;;;;;;;11.32;4.43;;;;;;;;;;12984462;19;20011;-60
2023/06/02 04:58:33;;;;;;;8.77;4.50;;;;;;;;;;12985607;19;20013;-60
2023/06/02 05:02:51;;;;;;;8.82;4.65;;;;;;;;;;12985074;19;20014;-60
2023/06/02 05:07:11;;;;;;;7.47;3.28;;;;;;;;;;12984411;19;20484;-61
2023/06/02 05:11:28;;;;;;;9.25;3.83;;;;;;;;;;12985234;19;20033;-61
2023/06/02 05:15:47;;;;;;;9.02;4.13;;;;;;;;;;12984825;19;20006;-60
2023/06/02 05:20:06;;;;;;;7.47;4.38;;;;;;;;;;12983561;19;20013;-61
2023/06/02 05:24:24;;;;;;;9.82;3.50;;;;;;;;;;12983125;19;20036;-61
2023/06/02 05:28:41;;;;;;;9.68;3.58;;;;;;;;;;12983596;19;20006;-61
2023/06/02 05:32:59;;;;;;;6.10;3.80;;;;;;;;;;12983394;19;20006;-61
2023/06/02 05:37:18;;;;;;;6.07;3.08;;;;;;;;;;12983161;19;20025;-61
2023/06/02 05:41:36;;;;;;;;;;;;;;;;;;12983723;19;20365;-61
2023/06/02 05:45:54;;;;;;;5.03;2.95;;;;;;;;;;12981920;19;20270;-61
2023/06/02 05:50:13;;;;;;;6.95;2.83;;;;;;;;;;12981978;19;20035;-61
2023/06/02 05:54:31;;;;;;;3.70;2.17;;;;;;;;;;12981230;19;20473;-61
2023/06/02 05:58:49;;;;;;;10.13;3.00;;;;;;;;;;12981985;19;20462;-61
2023/06/02 06:03:07;;;;;;;15.77;3.03;;;;;;;;;;12981095;19;20019;-62
2023/06/02 06:07:26;;;;;;;9.73;2.78;;;;;;;;;;12981481;19;21295;-62
2023/06/02 06:11:44;;;;;;;7.30;2.55;;;;;;;;;;12981903;19;20025;-62
2023/06/02 06:16:03;;;;;;;5.93;1.90;;;;;;;;;;12981566;19;20010;-62
2023/06/02 06:20:22;;;;;;;7.55;2.97;;;;;;;;;;12980723;19;20022;-61
2023/06/02 06:24:40;;;;;;;6.28;2.58;;;;;;;;;;12981071;19;20018;-61
2023/06/02 06:28:58;;;;;;;4.40;2.22;;;;;;;;;;12980567;19;20018;-61
2023/06/02 06:33:17;;;;;;;4.75;2.42;;;;;;;;;;12979457;19;20018;-61
2023/06/02 06:37:35;;;;;;;5.85;2.30;;;;;;;;;;12980689;19;20288;-61
2023/06/02 06:41:52;;;;;;;5.82;2.17;;;;;;;;;;12980413;19;20395;-61
2023/06/02 06:46:13;;;;;;;6.90;2.42;;;;;;;;;;12977720;19;20010;-61
2023/06/02 06:50:31;;;;;;;3.88;1.85;;;;;;;;;;12979484;19;20503;-61
2023/06/02 06:54:50;;;;;;;8.80;3.00;;;;;;;;;;12979928;19;20045;-62
2023/06/02 06:59:07;;;;;;;5.97;2.38;;;;;;;;;;12978295;19;20351;-62
2023/06/02 07:03:25;;;;;;;9.25;2.90;;;;;;;;;;12979396;19;20018;-61
2023/06/02 07:07:44;;;;;;;4.30;2.25;;;;;;;;;;12990461;19;20017;-62
2023/06/02 07:12:01;;;;;;;6.03;2.70;;;;;;;;;;12990820;19;20502;-61
2023/06/02 07:16:21;;;;;;;5.47;2.53;;;;;;;;;;12991230;19;20010;-61
2023/06/02 07:20:38;;;;;;;4.85;2.38;;;;;;;;;;12990875;19;20015;-61
2023/06/02 07:24:56;;;;;;;3.85;1.65;;;;;;;;;;12989475;19;20130;-62
2023/06/02 07:29:15;;;;;;;5.93;2.60;;;;;;;;;;12989166;19;20018;-62
2023/06/02 07:33:33;;;;;;;5.22;2.60;;;;;;;;;;12989748;19;20013;-61
2023/06/02 07:37:53;;;;;;;6.68;2.33;;;;;;;;;;12989470;19;20026;-61
2023/06/02 07:42:12;;;;;;;6.72;2.35;;;;;;;;;;12988511;19;20014;-62
2023/06/02 07:46:30;;;;;;;4.78;2.42;;;;;;;;;;12986916;19;20557;-61
2023/06/02 07:50:49;;;;;;;5.88;2.10;;;;;;;;;;12989315;19;20014;-62
2023/06/02 07:55:08;;;;;;;6.88;2.20;;;;;;;;;;12988961;19;20019;-61
2023/06/02 07:59:25;;;;;;;3.30;1.35;;;;;;;;;;12989026;19;20029;-62
2023/06/02 08:03:43;;;;;;;13.18;2.55;;;;;;;;;;12988531;19;20018;-61
2023/06/02 08:08:01;;;;;;;3.25;1.98;;;;;;;;;;12986625;19;20018;-62
2023/06/02 08:12:20;;;;;;;12.00;2.90;;;;;;;;;;12987605;19;20017;-62
2023/06/02 08:16:38;;;;;;;15.13;1.65;;;;;;;;;;12986603;19;20011;-62
2023/06/02 08:21:15;;;;;;;10.63;2.20;;;;;;;;;;12986950;19;20592;-62
2023/06/02 08:25:33;;;;;;;11.52;2.70;;;;;;;;;;12985895;19;20018;-62
2023/06/02 08:29:51;;;;;;;4.00;1.30;;;;;;;;;;12987013;19;20018;-61
2023/06/02 08:34:09;;;;;;;5.22;1.70;;;;;;;;;;12985620;19;20034;-61
2023/06/02 08:38:29;;;;;;;;;;;;;;;;;;12986642;19;20010;-61
2023/06/02 08:42:49;;;;;;;2.80;1.40;;;;;;;;;;12986644;19;19922;-61
2023/06/02 08:47:12;;;;;;;3.22;1.30;;;;;;;;;;12982498;19;20473;-61
2023/06/02 08:51:36;;;;;;;3.78;2.08;;;;;;;;;;12986026;19;20517;-61
2023/06/02 08:55:58;;;;;;;5.90;1.70;;;;;;;;;;12985413;19;20014;-62
2023/06/02 09:00:16;;;;;;;;;;;;;;;;;;12983670;19;20498;-66
2023/06/02 09:04:34;;;;;;;6.38;1.95;;;;;;;;;;12984772;19;20334;-65
2023/06/02 09:09:00;;;;;;;10.70;2.67;;;;;;;;;;12983632;19;20007;-64
2023/06/02 09:13:32;;;;;;;5.57;1.73;;;;;;;;;;12984280;19;20489;-64
2023/06/02 09:18:12;;;;;;;7.45;2.05;;;;;;;;;;12983390;19;20465;-65
2023/06/02 09:22:30;;;;;;;6.93;1.40;;;;;;;;;;12981905;19;20030;-64
2023/06/02 09:26:51;;;;;;;4.05;1.55;;;;;;;;;;12979774;19;20022;-64
2023/06/02 09:31:11;;;;;;;3.10;1.23;;;;;;;;;;12982402;19;20018;-64
2023/06/02 09:35:41;;;;;;;6.50;2.45;;;;;;;;;;12983394;19;20011;-64
2023/06/02 09:40:06;;;;;;;3.85;1.95;;;;;;;;;;12983130;19;20019;-64
2023/06/02 09:44:26;;;;;;;3.13;1.48;;;;;;;;;;12982403;19;20021;-64
2023/06/02 09:49:01;;;;;;;5.57;1.75;;;;;;;;;;12981991;19;20013;-65
2023/06/02 09:53:19;;;;;;;2.50;1.48;;;;;;;;;;12979688;19;20015;-64
2023/06/02 09:57:39;;;;;;;4.53;1.60;;;;;;;;;;12981990;19;20018;-64
2023/06/02 10:01:57;;;;;;;4.20;1.77;;;;;;;;;;12979569;19;20331;-64
2023/06/02 10:06:39;;;;;;;4.22;1.60;;;;;;;;;;12978943;19;20007;-64
2023/06/02 10:11:35;;;;;;;3.28;1.67;;;;;;;;;;12981277;19;20013;-64
2023/06/02 10:16:18;;;;;;;4.35;1.58;;;;;;;;;;12980572;19;20380;-64
2023/06/02 10:21:04;;;;;;;3.28;1.27;;;;;;;;;;12978323;19;20011;-64
2023/06/02 10:25:52;;;;;;;10.38;1.70;;;;;;;;;;12980391;19;20039;-64
2023/06/02 10:31:08;;;;;;;2.25;1.60;;;;;;;;;;13027727;19;20346;-64
2023/06/02 10:36:39;;;;;;;7.13;1.58;;;;;;;;;;13037572;19;20504;-64
2023/06/02 10:40:59;;;;;;;3.00;1.75;;;;;;;;;;13032799;19;20042;-64
2023/06/02 10:45:17;;;;;;;6.47;1.83;;;;;;;;;;13043225;19;20022;-63
2023/06/02 10:50:01;;;;;;;6.38;2.03;;;;;;;;;;13044106;19;20013;-63
2023/06/02 10:54:23;;;;;;;5.37;1.80;;;;;;;;;;13043386;19;20503;-63
2023/06/02 10:58:48;;;;;;;3.00;1.40;;;;;;;;;;13043305;19;20015;-63
2023/06/02 11:03:14;;;;;;;5.53;1.40;;;;;;;;;;13042687;19;20014;-63
2023/06/02 11:07:34;;;;;;;7.65;2.00;;;;;;;;;;13042493;19;20505;-63
2023/06/02 11:11:53;;;;;;;3.00;1.60;;;;;;;;;;13042829;19;20014;-64
2023/06/02 11:16:16;;;;;;;4.72;1.95;;;;;;;;;;13040754;19;20029;-63
2023/06/02 11:20:35;;;;;;;3.92;1.80;;;;;;;;;;13041637;19;20010;-63
2023/06/02 11:24:54;;;;;;;9.45;1.60;;;;;;;;;;13041693;19;20020;-64
2023/06/02 11:29:16;;;;;;;5.60;1.63;;;;;;;;;;13039525;19;20010;-63
2023/06/02 11:33:37;;;;;;;4.50;1.80;;;;;;;;;;13040680;19;20013;-63
2023/06/02 11:38:06;;;;;;;4.72;1.45;;;;;;;;;;13040858;19;20457;-65
2023/06/02 11:42:41;;;;;;;6.85;1.90;;;;;;;;;;12987617;19;20015;-63
2023/06/02 11:47:00;;;;;;;5.27;1.40;;;;;;;;;;12990195;19;20006;-64
2023/06/02 11:51:18;;;;;;;2.83;1.17;;;;;;;;;;12991250;19;20027;-64
2023/06/02 11:55:36;;;;;;;10.18;1.50;;;;;;;;;;12990150;19;20003;-64
2023/06/02 12:00:18;;;;;;;2.47;1.00;;;;;;;;;;12989855;19;20516;-65
2023/06/02 12:04:43;;;;;;;9.45;2.15;;;;;;;;;;12989304;19;20022;-64
2023/06/02 12:09:13;;;;;;;3.33;1.45;;;;;;;;;;12987800;19;20013;-65
2023/06/02 12:13:31;;;;;;;3.72;1.80;;;;;;;;;;12988712;19;20083;-65
2023/06/02 12:17:49;;;;;;;6.63;1.58;;;;;;;;;;12988627;19;20014;-64
2023/06/02 12:22:16;;;;;;;2.40;1.33;;;;;;;;;;12986456;19;20438;-64
2023/06/02 12:26:42;;;;;;;2.78;1.52;;;;;;;;;;12987288;19;20010;-64
2023/06/02 12:31:00;;;;;;;4.27;1.53;;;;;;;;;;12985338;19;20017;-65
2023/06/02 12:35:19;;;;;;;4.10;1.30;;;;;;;;;;12987871;19;20034;-64
2023/06/02 12:39:37;;;;;;;6.03;1.55;;;;;;;;;;12987796;19;20110;-64
2023/06/02 12:43:56;;;;;;;2.42;1.33;;;;;;;;;;12988418;19;20027;-65
2023/06/02 12:48:14;;;;;;;2.92;1.30;;;;;;;;;;12986976;19;20346;-65
2023/06/02 12:52:32;;;;;;;3.72;1.25;;;;;;;;;;12982796;19;20015;-64
2023/06/02 12:56:50;;;;;;;3.83;1.27;;;;;;;;;;12987249;19;20599;-64
2023/06/02 13:01:08;;;;;;;4.43;1.23;;;;;;;;;;12985359;19;20014;-64
2023/06/02 13:05:27;;;;;;;2.17;1.10;;;;;;;;;;12985082;19;20010;-64
2023/06/02 13:09:47;;;;;;;3.50;1.15;;;;;;;;;;12984788;19;20030;-64
2023/06/02 13:14:07;;;;;;;5.28;1.30;;;;;;;;;;12982580;19;20010;-64
2023/06/02 13:18:25;;;;;;;3.20;0.90;;;;;;;;;;12985826;19;20026;-64
2023/06/02 13:22:42;;;;;;;7.82;1.20;;;;;;;;;;12982386;19;20011;-65
2023/06/02 13:27:00;;;;;;;4.60;1.75;;;;;;;;;;12984459;19;20022;-65
2023/06/02 13:31:18;;;;;;;1.30;0.90;;;;;;;;;;12984386;19;20577;-64
2023/06/02 13:35:37;;;;;;;3.90;1.10;;;;;;;;;;12985011;19;20019;-64
2023/06/02 13:39:55;;;;;;;1.35;0.90;;;;;;;;;;12984348;19;20018;-64
2023/06/02 13:44:20;;;;;;;7.35;1.63;;;;;;;;;;12981385;19;20023;-65
2023/06/02 13:48:39;;;;;;;3.10;1.45;;;;;;;;;;12982889;19;20034;-66
2023/06/02 13:52:58;;;;;;;2.70;1.45;;;;;;;;;;12983116;19;20006;-64
2023/06/02 13:57:16;;;;;;;2.97;1.45;;;;;;;;;;12983169;19;20026;-64
2023/06/02 14:01:34;;;;;;;4.20;1.45;;;;;;;;;;12981945;19;20461;-65
2023/06/02 14:05:52;;;;;;;5.40;1.75;;;;;;;;;;12982769;19;20023;-64
2023/06/02 14:10:10;;;;;;;4.10;1.20;;;;;;;;;;12980946;19;20011;-64
2023/06/02 14:14:28;;;;;;;3.10;1.95;;;;;;;;;;12982063;19;20014;-63
2023/06/02 14:18:46;;;;;;;4.10;1.85;;;;;;;;;;12982954;19;20028;-64
2023/06/02 14:23:04;;;;;;;;;;;;;;;;;;12981387;19;20508;-64
2023/06/02 14:27:23;;;;;;;2.65;1.55;;;;;;;;;;12980943;19;20027;-64
2023/06/02 14:31:41;;;;;;;4.38;1.90;;;;;;;;;;12981926;19;20010;-63
2023/06/02 14:35:59;;;;;;;5.00;1.55;;;;;;;;;;12981297;19;20006;-64
2023/06/02 14:40:18;;;;;;;4.93;1.60;;;;;;;;;;12980966;19;20017;-64
2023/06/02 14:44:35;;;;;;;5.45;1.88;;;;;;;;;;12978699;19;20010;-64
2023/06/02 14:48:52;;;;;;;3.90;1.58;;;;;;;;;;12979839;19;20041;-63
2023/06/02 14:53:11;;;;;;;6.20;1.90;;;;;;;;;;12978008;19;20502;-63
2023/06/02 14:57:28;;;;;;;;;;;;;;;;;;12980568;19;20010;-64
2023/06/02 15:01:47;;;;;;;2.55;1.40;;;;;;;;;;12979911;19;19914;-63
2023/06/02 15:06:05;;;;;;;;;;;;;;;;;;12979297;19;20465;-63
2023/06/02 15:10:23;;;;;;;3.35;1.40;;;;;;;;;;12978388;19;19974;-63
2023/06/02 15:14:41;;;;;;;2.45;1.15;;;;;;;;;;12982499;19;20003;-63
2023/06/02 15:18:59;;;;;;;3.35;1.33;;;;;;;;;;12992170;19;20367;-63
2023/06/02 15:23:17;;;;;;;1.50;1.00;;;;;;;;;;12991295;19;20014;-64
2023/06/02 15:27:35;;;;;;;;;;;;;;;;;;12990914;19;20309;-64
2023/06/02 15:31:53;;;;;;;6.75;1.52;;;;;;;;;;12992175;19;20284;-64
2023/06/02 15:36:12;;;;;;;3.70;1.40;;;;;;;;;;12991178;19;20022;-64
2023/06/02 15:40:30;;;;;;;2.50;1.50;;;;;;;;;;12991440;19;20018;-64
2023/06/02 15:44:48;;;;;;;2.08;1.25;;;;;;;;;;12990719;19;20350;-64
2023/06/02 15:49:07;;;;;;;1.95;1.20;;;;;;;;;;12988741;19;20125;-64
2023/06/02 15:53:25;;;;;;;3.40;1.50;;;;;;;;;;12989867;19;20017;-65
2023/06/02 15:57:43;;;;;;;4.80;1.98;;;;;;;;;;12989678;19;20003;-63
2023/06/02 16:02:00;;;;;;;2.03;1.40;;;;;;;;;;12989222;19;20003;-64
2023/06/02 16:06:18;;;;;;;3.38;1.60;;;;;;;;;;12988060;19;20014;-64
2023/06/02 16:10:36;;;;;;;3.92;1.70;;;;;;;;;;12988365;19;20351;-64
2023/06/02 16:14:56;;;;;;;4.30;1.70;;;;;;;;;;12989087;19;20029;-63
2023/06/02 16:19:13;;;;;;;2.28;1.50;;;;;;;;;;12986061;19;20023;-65
2023/06/02 16:23:31;;;;;;;;;;;;;;;;;;12989998;19;20243;-63
2023/06/02 16:27:48;;;;;;;5.50;2.65;;;;;;;;;;12987557;19;20315;-64
2023/06/02 16:32:07;;;;;;;7.00;1.90;;;;;;;;;;12986634;19;20007;-63
2023/06/02 16:36:24;;;;;;;;;;;;;;;;;;12988978;19;20435;-64
2023/06/02 16:40:44;;;;;;;4.57;1.80;;;;;;;;;;12987477;19;19925;-65
2023/06/02 16:45:04;;;;;;;5.85;2.08;;;;;;;;;;12986832;19;20018;-65
2023/06/02 16:49:21;;;;;;;3.10;1.90;;;;;;;;;;12986245;19;20030;-64
2023/06/02 16:53:43;;;;;;;6.40;2.60;;;;;;;;;;12986477;19;20779;-65
2023/06/02 16:58:01;;;;;;;5.53;1.40;;;;;;;;;;12986069;19;20021;-65
2023/06/02 17:02:21;;;;;;;2.35;1.50;;;;;;;;;;12986077;19;20034;-64
2023/06/02 17:06:39;;;;;;;;;;;;;;;;;;12987500;19;20018;-64
2023/06/02 17:10:57;;;;;;;3.83;1.67;;;;;;;;;;12986301;19;19978;-64
2023/06/02 17:15:15;;;;;;;2.47;1.48;;;;;;;;;;12985099;19;20026;-64
2023/06/02 17:19:35;;;;;;;7.47;1.92;;;;;;;;;;12985379;19;20019;-63
2023/06/02 17:23:53;;;;;;;7.00;1.75;;;;;;;;;;12984970;19;20046;-63
2023/06/02 17:28:11;;;;;;;3.65;1.52;;;;;;;;;;12982689;19;20010;-63
2023/06/02 17:32:29;;;;;;;2.67;1.70;;;;;;;;;;12983977;19;20033;-63
2023/06/02 17:36:48;;;;;;;4.47;1.15;;;;;;;;;;12982209;19;20025;-63
2023/06/02 17:41:09;;;;;;;2.15;1.20;;;;;;;;;;12982179;19;20019;-63
2023/06/02 17:45:27;;;;;;;1.52;1.13;;;;;;;;;;12983751;19;20470;-64
2023/06/02 17:49:45;;;;;;;3.00;1.08;;;;;;;;;;12983744;19;20377;-64
2023/06/02 17:54:04;;;;;;;2.22;1.20;;;;;;;;;;12983525;19;20018;-63
2023/06/02 17:58:23;;;;;;;3.38;1.35;;;;;;;;;;12982985;19;20029;-63
2023/06/02 18:02:41;;;;;;;4.05;1.20;;;;;;;;;;12982744;19;20376;-64
2023/06/02 18:06:59;;;;;;;;;;;;;;;;;;12983450;19;20038;-64
2023/06/02 18:11:17;;;;;;;;;;;;;;;;;;12981997;19;19935;-64
2023/06/02 18:15:38;;;;;;;;;;;;;;;;;;12982486;19;19919;-63
2023/06/02 18:19:55;;;;;;;;;;;;;;;;;;12980845;19;19918;-64
2023/06/02 18:24:13;;;;;;;;;;;;;;;;;;12981753;19;19942;-64
2023/06/02 18:28:32;;;;;;;;;;;;;;;;;;12980842;19;19923;-64
2023/06/02 18:32:50;;;;;;;;;;;;;;;;;;12981852;19;19918;-65
2023/06/02 18:37:09;;;;;;;;;;;;;;;;;;12981088;19;20258;-64
2023/06/02 18:41:28;;;;;;;;;;;;;;;;;;12981258;19;19914;-63
2023/06/02 18:45:48;;;;;;;;;;;;;;;;;;12982175;19;19957;-63
2023/06/02 18:50:06;;;;;;;;;;;;;;;;;;12984265;19;19922;-65
2023/06/02 18:54:28;;;;;;;;;;;;;;;;;;12994266;19;20335;-64
2023/06/02 18:58:47;;;;;;;;;;;;;;;;;;12993471;19;19933;-65
2023/06/02 19:03:05;;;;;;;;;;;;;;;;;;12992121;19;19910;-65
2023/06/02 19:07:23;;;;;;;;;;;;;;;;;;12992338;19;19990;-65
2023/06/02 19:11:41;;;;;;;;;;;;;;;;;;12991166;19;19926;-63
2023/06/02 19:16:00;;;;;;;;;;;;;;;;;;12992505;19;19936;-63
2023/06/02 19:20:19;;;;;;;;;;;;;;;;;;12991853;19;19922;-64
2023/06/02 19:24:38;;;;;;;;;;;;;;;;;;12992291;19;19938;-64
2023/06/02 19:28:57;;;;;;;;;;;;;;;;;;12990746;19;19915;-64
2023/06/02 19:33:15;;;;;;;;;;;;;;;;;;12992455;19;19922;-63
2023/06/02 19:37:34;;;;;;;;;;;;;;;;;;12991893;19;19911;-63
2023/06/02 19:41:52;;;;;;;;;;;;;;;;;;12990903;19;20268;-63
2023/06/02 19:46:10;;;;;;;;;;;;;;;;;;12989864;19;19932;-63
2023/06/02 19:50:30;;;;;;;;;;;;;;;;;;12989932;19;20235;-63
2023/06/02 19:54:49;;;;;;;;;;;;;;;;;;12989716;19;19945;-62
2023/06/02 19:59:08;;;;;;;;;;;;;;;;;;12988758;19;19926;-64
2023/06/02 20:03:30;;;;;;;;;;;;;;;;;;12989295;19;19978;-63
2023/06/02 20:07:51;;;;;;;;;;;;;;;;;;12990596;19;19915;-64
2023/06/02 20:12:11;;;;;;;;;;;;;;;;;;12988240;19;20397;-65
2023/06/02 20:16:29;;;;;;;;;;;;;;;;;;12989767;19;19922;-66
2023/06/02 20:20:48;;;;;;;;;;;;;;;;;;12989589;19;20256;-63
2023/06/02 20:25:06;;;;;;;;;;;;;;;;;;12988253;19;19928;-63
2023/06/02 20:29:25;;;;;;;;;;;;;;;;;;12987336;19;19922;-63
2023/06/02 20:33:43;;;;;;;;;;;;;;;;;;12988036;19;19929;-63
2023/06/02 20:38:02;;;;;;;;;;;;;;;;;;12987795;19;19919;-64
2023/06/02 20:42:20;;;;;;;;;;;;;;;;;;12987993;19;19926;-63
2023/06/02 20:46:38;;;;;;;;;;;;;;;;;;12987511;19;20025;-63
2023/06/02 20:50:56;;;;;;;;;;;;;;;;;;12986634;19;19927;-63
2023/06/02 20:55:15;;;;;;;;;;;;;;;;;;12986826;19;19996;-64
2023/06/02 20:59:35;;;;;;;;;;;;;;;;;;12987647;19;19924;-64
2023/06/02 21:03:53;;;;;;;;;;;;;;;;;;12987098;19;19926;-63
2023/06/02 21:08:11;;;;;;;;;;;;;;;;;;12986047;19;19937;-64
2023/06/02 21:12:30;;;;;;;;;;;;;;;;;;12984662;19;19922;-66
2023/06/02 21:16:48;;;;;;;;;;;;;;;;;;12986446;19;19921;-64
2023/06/02 21:21:07;;;;;;;;;;;;;;;;;;12985961;19;19919;-64
2023/06/02 21:25:25;;;;;;;;;;;;;;;;;;12985654;19;19935;-63
2023/06/02 21:29:44;;;;;;;;;;;;;;;;;;12984685;19;19923;-63
2023/06/02 21:34:02;;;;;;;;;;;;;;;;;;12984257;19;19933;-65
2023/06/02 21:38:19;;;;;;;;;;;;;;;;;;12984932;19;19922;-63
2023/06/02 21:42:37;;;;;;;;;;;;;;;;;;12984083;19;19915;-63
2023/06/02 21:46:55;;;;;;;;;;;;;;;;;;12984302;19;19922;-64
2023/06/02 21:51:14;;;;;;;;;;;;;;;;;;12983081;19;20247;-63
2023/06/02 21:55:35;;;;;;;;;;;;;;;;;;12984732;19;20354;-64
2023/06/02 21:59:53;;;;;;;;;;;;;;;;;;12983602;19;20330;-64
2023/06/02 22:04:10;;;;;;;;;;;;;;;;;;12983328;19;19922;-63
2023/06/02 22:08:28;;;;;;;;;;;;;;;;;;12984382;19;19910;-64
2023/06/02 22:12:47;;;;;;;;;;;;;;;;;;12983262;19;20246;-64
2023/06/02 22:17:08;;;;;;;;;;;;;;;;;;12981520;19;19918;-64
2023/06/02 22:21:26;;;;;;;;;;;;;;;;;;12983431;19;20338;-63
2023/06/02 22:26:04;;;;;;;;;;;;;;;;;;12970487;19;19915;-64
2023/06/02 22:30:20;;;;;;;;;;;;;;;;;;12979840;19;19918;-64
2023/06/02 22:34:39;;;;;;;;;;;;;;;;;;12982938;19;19919;-64
2023/06/02 22:38:57;;;;;;;;;;;;;;;;;;12983405;19;19942;-63
2023/06/02 22:43:15;;;;;;;;;;;;;;;;;;12982140;19;19925;-64
2023/06/02 22:47:33;;;;;;;;;;;;;;;;;;12983935;19;19926;-64
2023/06/02 22:51:51;;;;;;;;;;;;;;;;;;12981512;19;19918;-64
2023/06/02 22:56:10;;;;;;;;;;;;;;;;;;12981547;19;20254;-63
2023/06/02 23:00:29;;;;;;;;;;;;;;;;;;12981328;19;19915;-63
2023/06/02 23:04:47;;;;;;;;;;;;;;;;;;12980835;19;19918;-63
2023/06/02 23:09:05;;;;;;;;;;;;;;;;;;12979505;19;19919;-63
2023/06/02 23:13:23;;;;;;;;;;;;;;;;;;12978805;19;19919;-64
2023/06/02 23:17:41;;;;;;;;;;;;;;;;;;12980093;19;19919;-64
2023/06/02 23:22:01;;;;;;;;;;;;;;;;;;12978481;19;19923;-64
2023/06/02 23:26:18;;;;;;;;;;;;;;;;;;12979345;19;20285;-63
2023/06/02 23:30:37;;;;;;;;;;;;;;;;;;12977918;19;19915;-63
2023/06/02 23:34:58;;;;;;;;;;;;;;;;;;12981101;19;20373;-64
2023/06/02 23:39:16;;;;;;;;;;;;;;;;;;12992657;19;19918;-64
2023/06/02 23:43:33;;;;;;;;;;;;;;;;;;12988446;19;19926;-64
2023/06/02 23:47:52;;;;;;;;;;;;;;;;;;12991174;19;19921;-64
2023/06/02 23:52:10;;;;;;;;;;;;;;;;;;12989558;19;19919;-63
2023/06/02 23:56:28;;;;;;;;;;;;;;;;;;12991264;19;19917;-64
